METAR Data
IDs: Format: Raw Decoded Include TAF

Data at: 1441 UTC 27 Nov 2021

EGMD 271420Z 33021KT 9999 BKN012 BKN016 06/04 Q0994 RERA